Time;durP1;ratioP1;P1;durP2;ratioP2;P2;SDS_P1;SDS_P2;PMS_P1;PMS_P2;Temp;Humidity;BMP_temperature;BMP_pressure;BME280_temperature;BME280_humidity;BME280_pressure;Samples;Min_cycle;Max_cycle;Signal;HPM_P1;HPM_P2
2023/10/06 00:02:57;;;;;;;8.83;4.97;;;13.90;99.90;;;;;;5073258;28;20202;-73
2023/10/06 00:05:24;;;;;;;10.70;4.77;;;14.00;99.90;;;;;;5073043;28;20168;-74
2023/10/06 00:07:53;;;;;;;8.83;5.47;;;14.10;99.90;;;;;;5072647;28;20294;-74
2023/10/06 00:10:20;;;;;;;10.37;5.10;;;14.00;99.90;;;;;;5072953;28;20191;-74
2023/10/06 00:12:50;;;;;;;7.90;4.57;;;14.00;99.90;;;;;;5072909;28;20177;-74
2023/10/06 00:15:28;;;;;;;7.23;4.70;;;14.00;99.90;;;;;;5072794;28;20217;-74
2023/10/06 00:18:07;;;;;;;9.23;5.17;;;13.90;99.90;;;;;;5072926;28;20168;-74
2023/10/06 00:20:39;;;;;;;6.97;4.73;;;13.90;99.90;;;;;;5072654;28;20184;-74
2023/10/06 00:23:13;;;;;;;8.97;4.93;;;13.90;99.90;;;;;;5072494;28;20220;-74
2023/10/06 00:25:42;;;;;;;8.17;4.53;;;13.90;99.90;;;;;;5073001;28;20640;-75
2023/10/06 00:28:17;;;;;;;8.60;4.77;;;13.90;99.90;;;;;;5072907;28;20172;-73
2023/10/06 00:30:43;;;;;;;11.53;4.80;;;13.90;99.90;;;;;;5073053;28;20209;-74
2023/10/06 00:33:10;;;;;;;9.90;4.70;;;13.90;99.90;;;;;;5072727;28;20176;-74
2023/10/06 00:35:36;;;;;;;9.07;5.17;;;13.90;99.90;;;;;;5072421;28;20539;-74
2023/10/06 00:38:17;;;;;;;8.37;4.60;;;13.90;99.90;;;;;;5072616;28;20200;-73
2023/10/06 00:40:51;;;;;;;9.27;4.83;;;13.90;99.90;;;;;;5072814;28;20175;-75
2023/10/06 00:43:39;;;;;;;9.03;5.17;;;13.90;99.90;;;;;;5072736;28;20237;-74
2023/10/06 00:46:07;;;;;;;11.30;5.70;;;13.90;99.90;;;;;;5072784;28;20567;-73
2023/10/06 00:48:38;;;;;;;7.77;5.07;;;13.90;99.90;;;;;;5072462;28;20168;-74
2023/10/06 00:51:13;;;;;;;10.90;5.10;;;14.00;99.90;;;;;;5075597;28;20188;-74
2023/10/06 00:53:42;;;;;;;9.30;5.00;;;13.90;99.90;;;;;;5076408;28;20203;-74
2023/10/06 00:56:10;;;;;;;10.53;4.87;;;13.90;99.90;;;;;;5076312;28;20240;-73
2023/10/06 00:58:43;;;;;;;12.87;5.23;;;13.90;99.90;;;;;;5076240;28;20255;-72
2023/10/06 01:01:12;;;;;;;7.13;4.83;;;13.80;99.90;;;;;;5076177;28;20165;-74
2023/10/06 01:03:39;;;;;;;9.63;5.13;;;13.90;99.90;;;;;;5074636;28;20204;-75
2023/10/06 01:06:12;;;;;;;10.70;5.07;;;14.00;99.90;;;;;;5075731;28;20176;-73
2023/10/06 01:08:38;;;;;;;7.60;4.63;;;14.00;99.90;;;;;;5076118;28;20303;-74
2023/10/06 01:11:11;;;;;;;5.63;4.60;;;13.90;99.90;;;;;;5076090;28;20218;-72
2023/10/06 01:13:38;;;;;;;11.80;4.73;;;13.80;99.90;;;;;;5075948;28;20199;-75
2023/10/06 01:16:11;;;;;;;8.23;4.57;;;13.80;99.90;;;;;;5075977;28;20246;-73
2023/10/06 01:18:40;;;;;;;6.73;4.40;;;13.80;99.90;;;;;;5075584;28;20172;-74
2023/10/06 01:21:16;;;;;;;8.67;5.20;;;13.80;99.90;;;;;;5075900;28;20184;-73
2023/10/06 01:23:42;;;;;;;7.73;4.40;;;13.90;99.90;;;;;;5075906;28;20269;-73
2023/10/06 01:26:08;;;;;;;7.97;4.43;;;13.90;99.90;;;;;;5075717;28;20252;-73
2023/10/06 01:28:34;;;;;;;12.27;4.93;;;13.90;99.90;;;;;;5075709;28;20676;-73
2023/10/06 01:31:01;;;;;;;10.33;5.00;;;13.90;99.90;;;;;;5075619;28;20176;-73
2023/10/06 01:33:26;;;;;;;9.20;4.50;;;13.90;99.90;;;;;;5075131;28;20682;-73
2023/10/06 01:35:52;;;;;;;7.43;4.37;;;13.90;99.90;;;;;;5075733;28;20172;-73
2023/10/06 01:38:24;;;;;;;7.33;4.83;;;13.90;99.90;;;;;;5075528;28;20169;-72
2023/10/06 01:40:53;;;;;;;10.37;5.23;;;13.90;99.90;;;;;;5075571;28;20175;-74
2023/10/06 01:43:23;;;;;;;8.10;4.60;;;13.90;99.90;;;;;;5075419;28;20246;-74
2023/10/06 01:45:50;;;;;;;11.97;4.80;;;14.00;99.90;;;;;;5075458;28;20628;-73
2023/10/06 01:48:22;;;;;;;8.30;5.00;;;14.00;99.90;;;;;;5075229;28;20281;-73
2023/10/06 01:50:49;;;;;;;6.93;4.53;;;13.90;99.90;;;;;;5075409;28;20218;-74
2023/10/06 01:53:18;;;;;;;9.43;4.67;;;13.90;99.90;;;;;;5075210;28;20671;-73
2023/10/06 01:56:00;;;;;;;7.17;4.77;;;13.90;99.90;;;;;;5074988;28;20176;-73
2023/10/06 01:58:26;;;;;;;7.27;4.50;;;13.90;99.90;;;;;;5074742;28;20538;-74
2023/10/06 02:00:52;;;;;;;8.07;4.37;;;14.00;99.90;;;;;;5074101;28;20177;-73
2023/10/06 02:03:18;;;;;;;10.30;3.87;;;14.00;99.90;;;;;;5073272;28;20176;-74
2023/10/06 02:05:44;;;;;;;7.13;4.20;;;14.00;99.90;;;;;;5075046;28;20179;-74
2023/10/06 02:08:10;;;;;;;5.80;4.30;;;14.10;99.90;;;;;;5074885;28;20182;-73
2023/10/06 02:10:37;;;;;;;7.83;4.13;;;14.10;99.90;;;;;;5074776;28;20204;-73
2023/10/06 02:13:07;;;;;;;10.67;4.40;;;14.00;99.90;;;;;;5074943;28;20179;-73
2023/10/06 02:15:33;;;;;;;10.70;4.57;;;14.00;99.90;;;;;;5075178;28;20180;-74
2023/10/06 02:17:59;;;;;;;8.10;4.60;;;14.00;99.90;;;;;;5074588;28;20536;-74
2023/10/06 02:23:02;;;;;;;7.53;3.83;;;14.00;99.90;;;;;;5074253;28;20244;-74
2023/10/06 02:25:29;;;;;;;9.20;4.30;;;14.00;99.90;;;;;;5074765;28;20244;-74
2023/10/06 02:27:55;;;;;;;6.73;4.17;;;14.00;99.90;;;;;;5074846;28;20179;-74
2023/10/06 02:30:37;;;;;;;7.33;4.30;;;14.00;99.90;;;;;;5074756;28;20318;-74
2023/10/06 02:33:06;;;;;;;8.63;4.47;;;14.00;99.90;;;;;;5073970;28;20530;-73
2023/10/06 02:35:34;;;;;;;10.03;4.10;;;13.90;99.90;;;;;;5073155;28;20636;-73
2023/10/06 02:38:05;;;;;;;8.73;4.10;;;13.90;99.90;;;;;;5074638;28;20188;-73
2023/10/06 02:40:38;;;;;;;6.73;3.80;;;14.00;99.90;;;;;;5074175;28;20643;-73
2023/10/06 02:43:06;;;;;;;10.53;4.13;;;13.90;99.90;;;;;;5074342;28;20181;-73
2023/10/06 02:45:40;;;;;;;8.10;4.30;;;13.90;99.90;;;;;;5073972;28;20165;-73
2023/10/06 02:48:16;;;;;;;6.97;3.90;;;13.90;99.90;;;;;;5074216;28;20187;-74
2023/10/06 02:50:45;;;;;;;11.67;3.70;;;13.90;99.90;;;;;;5074229;28;20222;-74
2023/10/06 02:53:14;;;;;;;6.80;3.90;;;13.90;99.90;;;;;;5074227;28;20501;-73
2023/10/06 02:55:44;;;;;;;7.47;3.87;;;13.90;99.90;;;;;;5073996;28;20188;-73
2023/10/06 02:58:16;;;;;;;8.13;4.20;;;14.00;99.90;;;;;;5073533;28;20263;-74
2023/10/06 03:00:50;;;;;;;9.53;3.90;;;14.00;99.90;;;;;;5073804;28;20168;-72
2023/10/06 03:03:18;;;;;;;6.57;3.50;;;14.00;99.90;;;;;;5073808;28;20242;-72
2023/10/06 03:05:49;;;;;;;4.93;3.33;;;14.00;99.90;;;;;;5072633;28;20251;-72
2023/10/06 03:08:20;;;;;;;8.47;3.90;;;14.00;99.90;;;;;;5073547;28;20168;-73
2023/10/06 03:10:48;;;;;;;8.63;3.67;;;14.00;99.90;;;;;;5073604;28;20655;-72
2023/10/06 03:13:32;;;;;;;7.80;3.60;;;14.10;99.90;;;;;;5073389;28;20290;-72
2023/10/06 03:15:59;;;;;;;6.13;3.53;;;14.10;99.90;;;;;;5073364;28;20187;-73
2023/10/06 03:18:25;;;;;;;5.67;3.47;;;14.10;99.90;;;;;;5073508;28;20243;-73
2023/10/06 03:20:59;;;;;;;4.17;3.43;;;14.20;99.90;;;;;;5073265;28;20172;-73
2023/10/06 03:23:32;;;;;;;7.13;3.60;;;14.20;99.90;;;;;;5072983;28;20224;-73
2023/10/06 03:25:57;;;;;;;7.87;3.70;;;14.10;99.90;;;;;;5073344;28;20271;-73
2023/10/06 03:28:36;;;;;;;5.43;3.57;;;14.10;99.90;;;;;;5073151;28;20394;-71
2023/10/06 03:33:50;;;;;;;6.60;3.90;;;14.20;99.90;;;;;;5073110;28;20703;-72
2023/10/06 03:36:16;;;;;;;8.33;4.10;;;14.20;99.90;;;;;;5073186;28;20632;-73
2023/10/06 03:38:52;;;;;;;7.67;3.83;;;14.10;99.90;;;;;;5072997;28;20177;-72
2023/10/06 03:41:19;;;;;;;6.93;3.80;;;14.20;99.90;;;;;;5073400;28;20274;-72
2023/10/06 03:43:53;;;;;;;8.47;3.90;;;14.00;99.90;;;;;;5072754;28;20644;-73
2023/10/06 03:46:19;;;;;;;10.33;4.07;;;14.00;99.90;;;;;;5072744;28;20256;-73
2023/10/06 03:48:48;;;;;;;6.60;4.20;;;14.00;99.90;;;;;;5073213;28;20183;-73
2023/10/06 03:51:20;;;;;;;5.50;3.40;;;14.00;99.90;;;;;;5072572;28;20176;-73
2023/10/06 03:53:48;;;;;;;5.30;3.93;;;13.90;99.90;;;;;;5072929;28;20243;-73
2023/10/06 03:56:17;;;;;;;9.73;4.07;;;13.90;99.90;;;;;;5072587;28;20160;-73
2023/10/06 03:58:46;;;;;;;5.90;3.73;;;13.90;99.90;;;;;;5072255;28;20185;-72
2023/10/06 04:01:26;;;;;;;5.70;3.50;;;14.00;99.90;;;;;;5073050;28;20208;-73
2023/10/06 04:03:53;;;;;;;9.07;4.40;;;13.90;99.90;;;;;;5072581;28;20267;-73
2023/10/06 04:06:23;;;;;;;9.00;4.27;;;13.80;99.90;;;;;;5072888;28;20636;-72
2023/10/06 04:08:49;;;;;;;7.13;4.20;;;13.80;99.90;;;;;;5072419;28;20679;-73
2023/10/06 04:11:15;;;;;;;5.57;4.37;;;13.80;99.90;;;;;;5072732;28;20178;-73
2023/10/06 04:13:41;;;;;;;6.57;4.40;;;13.70;99.90;;;;;;5072055;28;20660;-73
2023/10/06 04:16:07;;;;;;;10.90;4.70;;;13.70;99.90;;;;;;5072531;28;20171;-74
2023/10/06 04:18:33;;;;;;;6.17;4.47;;;13.70;99.90;;;;;;5072583;28;20176;-73
2023/10/06 04:20:59;;;;;;;8.00;4.57;;;13.70;99.90;;;;;;5072553;28;20172;-73
2023/10/06 04:23:25;;;;;;;9.20;4.90;;;13.70;99.90;;;;;;5071675;28;20228;-74
2023/10/06 04:25:55;;;;;;;9.17;4.40;;;13.60;99.90;;;;;;5075648;28;20569;-73
2023/10/06 04:28:22;;;;;;;8.87;4.47;;;13.60;99.90;;;;;;5074777;28;20233;-72
2023/10/06 04:30:49;;;;;;;7.03;4.60;;;13.50;99.90;;;;;;5076568;28;20223;-73
2023/10/06 04:33:16;;;;;;;7.53;4.60;;;13.50;99.90;;;;;;5076129;28;20168;-73
2023/10/06 04:35:55;;;;;;;11.87;5.20;;;13.50;99.90;;;;;;5076320;28;20172;-73
2023/10/06 04:38:21;;;;;;;12.17;5.20;;;13.50;99.90;;;;;;5076048;28;20683;-73
2023/10/06 04:40:48;;;;;;;17.30;5.30;;;13.60;99.90;;;;;;5076311;28;20196;-73
2023/10/06 04:43:15;;;;;;;10.67;4.70;;;13.50;99.90;;;;;;5075240;28;20223;-74
2023/10/06 04:45:41;;;;;;;7.87;4.90;;;13.50;99.90;;;;;;5075893;28;20187;-74
2023/10/06 04:48:09;;;;;;;10.77;4.90;;;13.50;99.90;;;;;;5076631;28;20576;-74
2023/10/06 04:50:36;;;;;;;8.00;4.83;;;13.50;99.90;;;;;;5075877;28;20239;-72
2023/10/06 04:53:01;;;;;;;9.77;4.77;;;13.50;99.90;;;;;;5075571;28;20264;-73
2023/10/06 04:55:31;;;;;;;9.50;4.40;;;13.60;99.90;;;;;;5075991;28;20279;-74
2023/10/06 04:57:57;;;;;;;8.27;4.67;;;13.60;99.90;;;;;;5075296;28;20184;-73
2023/10/06 05:00:26;;;;;;;7.13;4.60;;;13.60;99.90;;;;;;5075590;28;20176;-73
2023/10/06 05:02:52;;;;;;;6.73;4.40;;;13.50;99.90;;;;;;5075334;28;20165;-73
2023/10/06 05:05:21;;;;;;;10.57;5.10;;;13.50;99.90;;;;;;5075562;28;20322;-74
2023/10/06 05:07:49;;;;;;;12.27;4.83;;;13.50;99.90;;;;;;5075587;28;20624;-74
2023/10/06 05:10:21;;;;;;;14.33;5.40;;;13.60;99.90;;;;;;5075269;28;20652;-74
2023/10/06 05:12:49;;;;;;;10.47;4.87;;;13.60;99.90;;;;;;5075108;28;20323;-74
2023/10/06 05:15:17;;;;;;;12.00;5.33;;;13.60;99.90;;;;;;5075579;28;20687;-74
2023/10/06 05:17:43;;;;;;;10.30;5.30;;;13.50;99.90;;;;;;5073797;28;20173;-73
2023/10/06 05:20:19;;;;;;;12.80;5.37;;;13.50;99.90;;;;;;5075373;28;20179;-72
2023/10/06 05:22:47;;;;;;;11.47;5.40;;;13.50;99.90;;;;;;5074513;28;20224;-73
2023/10/06 05:25:13;;;;;;;11.83;5.10;;;13.40;99.90;;;;;;5075100;28;20176;-74
2023/10/06 05:27:39;;;;;;;7.43;5.20;;;13.40;99.90;;;;;;5075221;28;20579;-73
2023/10/06 05:30:06;;;;;;;13.67;5.30;;;13.40;99.90;;;;;;5074928;28;20169;-73
2023/10/06 05:32:32;;;;;;;10.30;5.10;;;13.40;99.90;;;;;;5074077;28;20169;-73
2023/10/06 05:34:58;;;;;;;11.50;5.40;;;13.30;99.90;;;;;;5074385;28;20636;-75
2023/10/06 05:37:24;;;;;;;9.83;5.00;;;13.40;99.90;;;;;;5074362;28;20161;-73
2023/10/06 05:39:49;;;;;;;10.37;5.20;;;13.40;99.90;;;;;;5072656;28;20276;-73
2023/10/06 05:42:15;;;;;;;12.93;5.63;;;13.30;99.90;;;;;;5074953;28;20222;-73
2023/10/06 05:44:42;;;;;;;15.53;5.63;;;13.30;99.90;;;;;;5074543;28;20176;-73
2023/10/06 05:47:08;;;;;;;11.60;5.13;;;13.30;99.90;;;;;;5074489;28;20176;-75
2023/10/06 05:49:35;;;;;;;12.47;5.43;;;13.40;99.90;;;;;;5073755;28;20723;-74
2023/10/06 05:52:03;;;;;;;9.90;5.17;;;13.30;99.90;;;;;;5073981;28;20180;-72
2023/10/06 05:54:29;;;;;;;10.93;5.67;;;13.40;99.90;;;;;;5074162;28;20667;-74
2023/10/06 05:56:55;;;;;;;16.50;5.77;;;13.40;99.90;;;;;;5073897;28;20181;-75
2023/10/06 05:59:21;;;;;;;12.67;6.13;;;13.50;99.90;;;;;;5073988;28;20684;-75
2023/10/06 06:01:56;;;;;;;13.47;5.13;;;13.60;99.90;;;;;;5073942;28;20212;-73
2023/10/06 06:04:27;;;;;;;22.63;6.37;;;13.60;99.90;;;;;;5074227;28;20178;-75
2023/10/06 06:06:56;;;;;;;17.40;5.80;;;13.60;99.90;;;;;;5073724;28;20574;-75
2023/10/06 06:09:27;;;;;;;12.13;5.40;;;13.70;99.90;;;;;;5073374;28;20203;-73
2023/10/06 06:11:53;;;;;;;10.90;5.60;;;13.70;99.90;;;;;;5074221;28;20181;-74
2023/10/06 06:14:21;;;;;;;12.83;6.00;;;13.80;99.90;;;;;;5073740;28;20687;-75
2023/10/06 06:16:47;;;;;;;21.13;6.57;;;13.90;99.90;;;;;;5073607;28;20205;-74
2023/10/06 06:19:13;;;;;;;14.40;5.67;;;13.90;99.90;;;;;;5073542;28;20536;-74
2023/10/06 06:21:39;;;;;;;17.10;6.20;;;13.90;99.90;;;;;;5073290;28;20208;-74
2023/10/06 06:24:06;;;;;;;10.90;5.73;;;14.00;99.90;;;;;;5073504;28;20242;-74
2023/10/06 06:26:32;;;;;;;13.77;6.30;;;14.00;99.90;;;;;;5073404;28;20200;-75
2023/10/06 06:29:02;;;;;;;17.43;6.50;;;14.10;99.90;;;;;;5072949;28;20182;-75
2023/10/06 06:31:32;;;;;;;20.50;6.37;;;14.10;99.90;;;;;;5073520;28;20203;-74
2023/10/06 06:34:04;;;;;;;17.73;6.30;;;14.20;99.90;;;;;;5073469;28;20235;-75
2023/10/06 06:36:31;;;;;;;15.77;6.23;;;14.20;99.90;;;;;;5073550;28;20191;-74
2023/10/06 06:38:58;;;;;;;13.80;6.23;;;14.40;99.90;;;;;;5073470;28;20184;-75
2023/10/06 06:41:24;;;;;;;18.33;6.47;;;14.40;99.90;;;;;;5073625;28;20188;-74
2023/10/06 06:43:55;;;;;;;18.40;6.47;;;14.50;99.90;;;;;;5071852;28;20642;-74
2023/10/06 06:46:21;;;;;;;11.53;6.50;;;14.60;99.90;;;;;;5073048;28;20172;-75
2023/10/06 06:48:46;;;;;;;22.63;6.20;;;14.80;99.90;;;;;;5072505;28;20171;-75
2023/10/06 06:51:12;;;;;;;19.60;6.27;;;14.70;99.90;;;;;;5072831;28;20195;-77
2023/10/06 06:53:41;;;;;;;17.40;6.67;;;15.10;99.90;;;;;;5072564;28;20283;-76
2023/10/06 06:56:10;;;;;;;21.67;6.93;;;15.40;99.90;;;;;;5073348;28;20667;-76
2023/10/06 06:58:37;;;;;;;20.73;6.90;;;15.60;99.90;;;;;;5071670;28;20271;-76
2023/10/06 07:01:05;;;;;;;17.67;5.40;;;15.90;99.90;;;;;;5073055;28;20177;-74
2023/10/06 07:03:31;;;;;;;17.93;6.27;;;16.20;99.90;;;;;;5068925;28;20177;-71
2023/10/06 07:05:57;;;;;;;13.27;5.50;;;16.70;99.90;;;;;;5075248;28;20230;-71
2023/10/06 07:08:24;;;;;;;13.10;5.53;;;17.00;99.90;;;;;;5073482;28;20234;-70
2023/10/06 07:10:52;;;;;;;10.85;5.63;;;17.30;99.90;;;;;;5073012;28;20187;-71
2023/10/06 07:13:18;;;;;;;10.67;5.30;;;17.30;99.90;;;;;;5072990;28;20188;-71
2023/10/06 07:15:44;;;;;;;13.63;5.90;;;17.20;99.90;;;;;;5072077;28;20210;-72
2023/10/06 07:18:10;;;;;;;11.80;5.47;;;17.40;99.90;;;;;;5072159;28;20161;-71
2023/10/06 07:20:36;;;;;;;9.80;5.30;;;17.50;99.90;;;;;;5076955;28;20236;-71
2023/10/06 07:23:02;;;;;;;13.07;5.60;;;17.60;99.90;;;;;;5090692;28;20220;-71
2023/10/06 07:25:28;;;;;;;11.95;5.18;;;17.60;99.90;;;;;;5092704;28;20176;-71
2023/10/06 07:27:57;;;;;;;15.43;5.63;;;17.50;99.90;;;;;;5093125;28;20229;-73
2023/10/06 07:30:23;;;;;;;11.77;4.97;;;17.50;99.90;;;;;;5092676;28;20222;-73
2023/10/06 07:32:54;;;;;;;13.00;5.53;;;17.60;99.90;;;;;;5089878;28;20187;-72
2023/10/06 07:35:27;;;;;;;11.77;4.97;;;17.80;99.90;;;;;;5086291;28;20223;-71
2023/10/06 07:37:53;;;;;;;10.23;5.35;;;17.90;99.90;;;;;;5092789;28;20164;-72
2023/10/06 07:40:21;;;;;;;9.60;4.75;;;18.60;99.90;;;;;;5092707;28;20255;-73
2023/10/06 07:42:48;;;;;;;14.50;5.60;;;18.90;99.90;;;;;;5090462;28;20607;-72
2023/10/06 07:45:15;;;;;;;12.63;5.38;;;19.30;99.90;;;;;;5090760;28;20182;-69
2023/10/06 07:47:44;;;;;;;20.33;5.80;;;19.10;99.90;;;;;;5092779;28;20164;-71
2023/10/06 07:50:14;;;;;;;18.75;6.22;;;19.10;99.90;;;;;;5091953;28;20661;-73
2023/10/06 07:52:41;;;;;;;21.05;5.60;;;18.60;99.90;;;;;;5092701;28;20163;-74
2023/10/06 07:55:09;;;;;;;19.38;5.93;;;18.50;99.90;;;;;;5092484;28;20203;-72
2023/10/06 07:57:36;;;;;;;17.20;5.90;;;18.40;99.90;;;;;;5092153;28;20160;-72
2023/10/06 08:00:07;;;;;;;14.43;5.53;;;18.50;99.90;;;;;;5092653;28;20160;-73
2023/10/06 08:02:39;;;;;;;12.77;5.78;;;18.50;99.90;;;;;;5091680;28;20164;-74
2023/10/06 08:05:12;;;;;;;15.52;5.63;;;18.60;99.90;;;;;;5092160;28;20179;-72
2023/10/06 08:07:39;;;;;;;12.38;5.15;;;18.80;99.90;;;;;;5091813;28;20187;-72
2023/10/06 08:10:05;;;;;;;13.13;5.90;;;18.90;99.90;;;;;;5092420;28;20183;-72
2023/10/06 08:12:35;;;;;;;14.52;5.10;;;18.80;99.90;;;;;;5092162;28;20221;-75
2023/10/06 08:15:09;;;;;;;12.68;5.10;;;18.70;99.90;;;;;;5092327;28;20210;-71
2023/10/06 08:17:36;;;;;;;15.48;6.32;;;18.90;99.90;;;;;;5092465;28;20174;-73
2023/10/06 08:20:02;;;;;;;15.00;5.05;;;18.60;99.90;;;;;;5091983;28;20168;-75
2023/10/06 08:22:31;;;;;;;12.38;5.13;;;18.60;99.90;;;;;;5092401;28;20212;-73
2023/10/06 08:24:57;;;;;;;16.35;5.43;;;18.60;99.90;;;;;;5092077;28;20186;-73
2023/10/06 08:27:23;;;;;;;13.98;5.38;;;18.80;99.90;;;;;;5090362;28;20171;-71
2023/10/06 08:29:51;;;;;;;14.48;5.07;;;19.10;99.90;;;;;;5092350;28;20260;-72
2023/10/06 08:32:21;;;;;;;13.88;5.63;;;19.10;99.90;;;;;;5091882;28;20168;-73
2023/10/06 08:34:47;;;;;;;9.20;5.15;;;19.10;99.90;;;;;;5092103;28;20227;-72
2023/10/06 08:37:14;;;;;;;13.38;5.25;;;19.60;99.90;;;;;;5092311;28;20627;-71
2023/10/06 08:39:40;;;;;;;10.38;4.82;;;20.40;99.90;;;;;;5091453;28;20184;-72
2023/10/06 08:42:12;;;;;;;14.52;5.00;;;20.90;99.90;;;;;;5091690;28;20262;-72
2023/10/06 08:44:41;;;;;;;9.35;4.55;;;21.40;99.90;;;;;;5092534;28;20199;-72
2023/10/06 08:47:12;;;;;;;10.95;4.70;;;21.50;99.30;;;;;;5092504;28;20223;-72
2023/10/06 08:49:40;;;;;;;11.80;4.88;;;21.20;99.70;;;;;;5092117;28;20172;-73
2023/10/06 08:52:10;;;;;;;14.90;5.43;;;20.80;99.90;;;;;;5092353;28;20168;-71
2023/10/06 08:54:36;;;;;;;10.23;4.60;;;21.20;99.90;;;;;;5091823;28;20734;-71
2023/10/06 08:57:03;;;;;;;11.02;4.60;;;21.20;99.90;;;;;;5090446;28;20275;-72
2023/10/06 08:59:31;;;;;;;12.18;5.20;;;21.10;99.90;;;;;;5091660;28;20164;-70
2023/10/06 09:01:59;;;;;;;17.50;5.22;;;21.00;99.90;;;;;;5092330;28;20254;-71
2023/10/06 09:04:33;;;;;;;10.98;4.82;;;20.60;99.90;;;;;;5091655;28;20160;-70
2023/10/06 09:07:16;;;;;;;13.35;4.95;;;20.60;99.90;;;;;;5091815;28;20171;-70
2023/10/06 09:09:43;;;;;;;10.70;4.60;;;20.10;99.90;;;;;;5091372;28;20188;-71
2023/10/06 09:12:31;;;;;;;12.10;5.30;;;20.10;99.90;;;;;;5094047;28;20175;-71
2023/10/06 09:14:57;;;;;;;15.15;5.43;;;20.00;99.90;;;;;;5095617;28;20199;-70
2023/10/06 09:17:33;;;;;;;10.65;5.00;;;20.00;99.90;;;;;;5094965;28;20180;-71
2023/10/06 09:19:59;;;;;;;10.05;5.35;;;20.00;99.90;;;;;;5095619;28;20200;-72
2023/10/06 09:22:29;;;;;;;13.70;4.63;;;20.20;99.90;;;;;;5095123;28;20247;-73
2023/10/06 09:24:59;;;;;;;12.07;4.53;;;20.10;99.90;;;;;;5095479;28;20172;-72
2023/10/06 09:27:25;;;;;;;10.77;4.45;;;19.90;99.90;;;;;;5095080;28;20183;-70
2023/10/06 09:30:11;;;;;;;15.00;5.28;;;20.00;99.90;;;;;;5095206;28;20171;-72
2023/10/06 09:32:39;;;;;;;9.38;4.75;;;20.40;99.90;;;;;;5094393;28;20168;-71
2023/10/06 09:35:17;;;;;;;9.27;4.28;;;20.50;99.90;;;;;;5093980;28;20207;-72
2023/10/06 09:37:44;;;;;;;10.43;4.40;;;21.10;99.90;;;;;;5095353;28;20183;-72
2023/10/06 09:40:18;;;;;;;8.65;4.28;;;21.00;99.90;;;;;;5093918;28;20164;-70
2023/10/06 09:42:47;;;;;;;13.52;4.53;;;21.10;99.90;;;;;;5094663;28;20198;-71
2023/10/06 09:45:21;;;;;;;9.68;4.72;;;21.60;99.90;;;;;;5095045;28;20164;-72
2023/10/06 09:47:51;;;;;;;6.50;3.70;;;21.90;99.90;;;;;;5094902;28;20188;-71
2023/10/06 09:50:20;;;;;;;8.48;4.43;;;21.40;99.90;;;;;;5095053;28;20173;-71
2023/10/06 09:52:48;;;;;;;9.57;3.88;;;21.20;99.90;;;;;;5094368;28;20168;-70
2023/10/06 09:55:17;;;;;;;10.10;4.55;;;20.90;99.90;;;;;;5094270;28;20196;-71
2023/10/06 09:57:47;;;;;;;7.70;4.25;;;20.70;99.90;;;;;;5095242;28;20180;-73
2023/10/06 10:00:16;;;;;;;8.10;4.22;;;20.50;99.90;;;;;;5093288;28;20178;-74
2023/10/06 10:02:49;;;;;;;7.15;4.00;;;20.30;99.90;;;;;;5093493;28;20176;-73
2023/10/06 10:05:22;;;;;;;6.07;3.70;;;20.50;99.90;;;;;;5094053;28;20221;-74
2023/10/06 10:07:48;;;;;;;8.85;4.10;;;21.10;99.90;;;;;;5092955;28;20243;-74
2023/10/06 10:10:27;;;;;;;9.77;4.40;;;21.50;99.90;;;;;;5093884;28;20681;-74
2023/10/06 10:13:11;;;;;;;9.02;4.28;;;21.70;99.90;;;;;;5093640;28;20552;-75
2023/10/06 10:16:12;;;;;;;5.70;3.88;;;21.70;99.90;;;;;;5093972;28;20610;-74
2023/10/06 10:18:49;;;;;;;7.28;4.20;;;21.40;99.90;;;;;;5085950;28;20271;-71
2023/10/06 10:21:15;;;;;;;10.82;4.13;;;21.60;99.90;;;;;;5090748;28;20186;-73
2023/10/06 10:23:43;;;;;;;6.03;4.38;;;21.30;99.90;;;;;;5092437;28;20226;-72
2023/10/06 10:26:27;;;;;;;8.10;4.05;;;20.70;99.90;;;;;;5092887;28;20172;-73
2023/10/06 10:29:16;;;;;;;12.88;4.60;;;20.40;99.90;;;;;;5092215;28;20508;-71
2023/10/06 10:31:44;;;;;;;12.90;4.70;;;20.60;99.90;;;;;;5093700;28;20702;-72
2023/10/06 10:34:33;;;;;;;9.18;4.72;;;20.70;99.90;;;;;;5093959;28;20187;-72
2023/10/06 10:37:05;;;;;;;12.55;4.30;;;21.30;99.90;;;;;;5093924;28;20160;-73
2023/10/06 10:39:51;;;;;;;10.50;4.45;;;22.60;99.90;;;;;;5093363;28;20515;-71
2023/10/06 10:42:53;;;;;;;8.25;4.40;;;23.00;98.90;;;;;;5094121;28;20171;-75
2023/10/06 10:45:30;;;;;;;6.25;4.53;;;22.80;98.80;;;;;;5031165;28;20308;-71
2023/10/06 10:47:59;;;;;;;9.60;4.25;;;23.10;98.50;;;;;;5039254;28;20193;-72
2023/10/06 10:50:55;;;;;;;8.13;4.30;;;23.00;99.00;;;;;;5050874;28;20655;-72
2023/10/06 10:53:21;;;;;;;8.52;4.20;;;23.40;98.10;;;;;;5050629;28;20636;-74
2023/10/06 10:55:50;;;;;;;7.60;3.45;;;23.90;96.50;;;;;;5050433;28;20288;-73
2023/10/06 10:58:47;;;;;;;6.40;3.22;;;23.40;96.20;;;;;;5051236;28;20668;-72
2023/10/06 11:01:29;;;;;;;9.73;3.80;;;22.60;97.80;;;;;;5050815;28;20268;-72
2023/10/06 11:04:13;;;;;;;5.90;3.85;;;22.20;98.50;;;;;;5050745;28;20216;-73
2023/10/06 11:06:45;;;;;;;9.75;3.50;;;22.00;98.60;;;;;;5051422;28;20223;-74
2023/10/06 11:09:12;;;;;;;6.90;3.40;;;22.30;98.70;;;;;;5050660;28;20284;-73
2023/10/06 11:11:39;;;;;;;12.55;3.35;;;22.60;97.40;;;;;;5050667;28;20180;-73
2023/10/06 11:14:05;;;;;;;7.85;3.72;;;22.70;97.40;;;;;;5049992;28;20217;-73
2023/10/06 11:16:32;;;;;;;9.90;3.65;;;23.00;96.80;;;;;;5050404;28;20207;-72
2023/10/06 11:19:03;;;;;;;5.78;3.45;;;23.40;96.00;;;;;;5049722;28;20653;-71
2023/10/06 11:21:31;;;;;;;13.70;3.72;;;23.40;95.80;;;;;;5067027;28;20184;-75
2023/10/06 11:23:58;;;;;;;12.25;4.00;;;23.30;95.70;;;;;;5072929;28;20173;-73
2023/10/06 11:26:33;;;;;;;9.57;3.63;;;23.40;95.70;;;;;;5072617;28;20178;-74
2023/10/06 11:29:02;;;;;;;8.68;3.78;;;23.00;95.80;;;;;;5072236;28;20197;-73
2023/10/06 11:31:28;;;;;;;5.97;3.33;;;22.90;95.90;;;;;;5089012;28;20184;-74
2023/10/06 11:33:55;;;;;;;8.30;3.45;;;22.70;96.20;;;;;;5092239;28;20241;-73
2023/10/06 11:36:21;;;;;;;6.68;3.40;;;22.80;96.50;;;;;;5092316;28;20650;-74
2023/10/06 11:38:48;;;;;;;7.70;3.08;;;22.80;96.20;;;;;;5092724;28;20171;-74
2023/10/06 11:41:23;;;;;;;7.35;3.47;;;22.90;96.00;;;;;;5092777;28;20183;-75
2023/10/06 11:43:55;;;;;;;7.90;3.38;;;22.60;96.50;;;;;;5092550;28;20579;-72
2023/10/06 11:46:21;;;;;;;8.57;3.60;;;22.70;96.50;;;;;;5092825;28;20164;-73
2023/10/06 11:48:47;;;;;;;9.75;3.88;;;22.60;96.90;;;;;;5091542;28;20175;-74
2023/10/06 11:51:13;;;;;;;5.57;3.30;;;22.70;97.00;;;;;;5093808;28;20180;-72
2023/10/06 11:53:40;;;;;;;9.85;4.45;;;22.70;97.10;;;;;;5112852;28;20658;-73
2023/10/06 11:56:07;;;;;;;10.35;3.80;;;22.40;97.70;;;;;;5113191;28;20186;-72
2023/10/06 11:58:35;;;;;;;11.18;4.03;;;22.40;97.80;;;;;;5112597;28;20512;-71
2023/10/06 12:01:03;;;;;;;10.40;3.72;;;22.00;97.90;;;;;;5112923;28;20175;-73
2023/10/06 12:03:34;;;;;;;6.53;3.10;;;22.10;98.50;;;;;;5112707;28;20220;-74
2023/10/06 12:06:00;;;;;;;10.20;3.53;;;22.10;98.70;;;;;;5112930;28;20163;-71
2023/10/06 12:08:26;;;;;;;6.72;3.78;;;22.10;98.30;;;;;;5112145;28;20315;-74
2023/10/06 12:10:52;;;;;;;9.70;3.80;;;22.10;98.50;;;;;;5113083;28;20657;-75
2023/10/06 12:13:18;;;;;;;10.60;3.90;;;22.30;98.40;;;;;;5112908;28;20590;-75
2023/10/06 12:15:45;;;;;;;10.10;3.92;;;22.30;98.10;;;;;;5112035;28;20211;-71
2023/10/06 12:18:11;;;;;;;5.97;3.80;;;22.00;98.30;;;;;;5112244;28;20171;-73
2023/10/06 12:20:37;;;;;;;10.05;3.70;;;21.80;98.80;;;;;;5113007;28;20171;-73
2023/10/06 12:23:03;;;;;;;8.80;3.53;;;22.00;98.90;;;;;;5110934;28;20279;-73
2023/10/06 12:25:29;;;;;;;6.20;3.72;;;21.80;99.00;;;;;;5091579;28;20575;-72
2023/10/06 12:27:56;;;;;;;8.13;4.13;;;21.80;99.40;;;;;;5092339;28;20182;-74
2023/10/06 12:30:24;;;;;;;6.82;3.60;;;21.80;99.30;;;;;;5092083;28;20180;-73
2023/10/06 12:32:50;;;;;;;8.38;3.83;;;21.80;99.40;;;;;;5092135;28;20172;-74
2023/10/06 12:35:18;;;;;;;7.53;3.90;;;21.60;99.60;;;;;;5091691;28;20195;-74
2023/10/06 12:37:46;;;;;;;7.68;4.10;;;21.20;99.90;;;;;;5092328;28;20262;-71
2023/10/06 12:40:14;;;;;;;12.10;4.03;;;21.20;99.90;;;;;;5091776;28;20176;-73
2023/10/06 12:42:42;;;;;;;8.35;4.25;;;21.30;99.90;;;;;;5092312;28;20638;-72
2023/10/06 12:45:12;;;;;;;7.65;4.10;;;21.20;99.90;;;;;;5091619;28;20180;-73
2023/10/06 12:47:45;;;;;;;14.57;4.05;;;21.10;99.90;;;;;;5095519;28;20199;-73
2023/10/06 12:50:13;;;;;;;7.50;3.97;;;21.00;99.90;;;;;;5095060;28;20636;-74
2023/10/06 12:52:39;;;;;;;7.22;4.40;;;21.10;99.90;;;;;;5103289;28;20273;-74
2023/10/06 12:55:10;;;;;;;9.32;4.18;;;21.20;99.90;;;;;;5115889;28;20304;-73
2023/10/06 12:57:40;;;;;;;6.85;3.97;;;21.10;99.90;;;;;;5095615;28;20206;-71
2023/10/06 13:00:11;;;;;;;10.57;4.50;;;20.90;99.90;;;;;;5095512;28;20228;-72
2023/10/06 13:02:37;;;;;;;7.80;4.45;;;21.00;99.90;;;;;;5094216;28;20176;-74